Time;durP1;ratioP1;P1;durP2;ratioP2;P2;SDS_P1;SDS_P2;PMS_P1;PMS_P2;Temp;Humidity;BMP_temperature;BMP_pressure;BME280_temperature;BME280_humidity;BME280_pressure;Samples;Min_cycle;Max_cycle;Signal;HPM_P1;HPM_P2
2023/05/17 00:01:48;;;;;;;0.73;0.30;;;17.10;91.50;;;;;;6337127;22;20128;-79
2023/05/17 00:04:15;;;;;;;0.43;0.22;;;17.10;91.60;;;;;;6337668;22;20457;-79
2023/05/17 00:06:42;;;;;;;0.22;0.22;;;17.10;91.60;;;;;;6338171;22;20003;-79
2023/05/17 00:09:07;;;;;;;0.20;0.20;;;17.10;91.40;;;;;;6336311;22;20086;-79
2023/05/17 00:11:34;;;;;;;0.50;0.30;;;17.10;91.40;;;;;;6337926;22;20003;-79
2023/05/17 00:13:59;;;;;;;0.70;0.30;;;17.10;91.30;;;;;;6338628;22;20073;-79
2023/05/17 00:16:25;;;;;;;0.20;0.20;;;17.10;91.50;;;;;;6339248;22;20036;-80
2023/05/17 00:18:51;;;;;;;0.45;0.40;;;17.10;91.50;;;;;;6338399;22;20003;-80
2023/05/17 00:21:16;;;;;;;0.20;0.20;;;17.10;91.20;;;;;;6338187;22;20006;-80
2023/05/17 00:23:42;;;;;;;0.22;0.20;;;17.10;91.10;;;;;;6338256;22;19998;-80
2023/05/17 00:26:08;;;;;;;0.20;0.20;;;17.10;91.40;;;;;;6339508;22;20003;-80
2023/05/17 00:28:33;;;;;;;1.00;0.30;;;17.10;91.50;;;;;;6340161;22;20003;-80
2023/05/17 00:30:59;;;;;;;0.10;0.10;;;17.20;91.40;;;;;;6340141;22;20006;-80
2023/05/17 00:33:24;;;;;;;0.63;0.20;;;17.10;91.20;;;;;;6339633;22;20025;-81
2023/05/17 00:35:50;;;;;;;1.42;0.22;;;17.10;91.20;;;;;;6340338;22;20456;-81
2023/05/17 00:38:16;;;;;;;0.20;0.20;;;17.10;90.80;;;;;;6340950;22;20048;-80
2023/05/17 00:40:41;;;;;;;0.20;0.20;;;17.20;90.40;;;;;;6340144;22;20069;-81
2023/05/17 00:43:07;;;;;;;0.50;0.30;;;17.10;90.10;;;;;;6338495;22;20093;-81
2023/05/17 00:45:33;;;;;;;2.15;0.17;;;17.20;89.80;;;;;;6340497;22;20472;-81
2023/05/17 00:47:58;;;;;;;0.20;0.13;;;17.20;89.50;;;;;;6340691;22;20003;-81
2023/05/17 00:50:24;;;;;;;0.40;0.20;;;17.20;89.90;;;;;;6340418;22;20067;-80
2023/05/17 00:52:50;;;;;;;0.20;0.20;;;17.20;90.20;;;;;;6339694;22;20400;-79
2023/05/17 00:55:15;;;;;;;1.75;0.20;;;17.20;89.80;;;;;;6338786;22;20082;-79
2023/05/17 00:57:41;;;;;;;0.25;0.20;;;17.20;89.60;;;;;;6340482;22;20022;-79
2023/05/17 01:00:07;;;;;;;0.52;0.13;;;17.20;90.00;;;;;;6339880;22;20003;-80
2023/05/17 01:02:33;;;;;;;1.75;0.30;;;17.20;90.20;;;;;;6340058;22;19999;-80
2023/05/17 01:04:59;;;;;;;0.20;0.20;;;17.20;90.00;;;;;;6340539;22;20087;-80
2023/05/17 01:07:25;;;;;;;0.45;0.20;;;17.20;90.30;;;;;;6339770;22;20068;-80
2023/05/17 01:09:51;;;;;;;0.30;0.30;;;17.20;90.20;;;;;;6339984;22;20472;-80
2023/05/17 01:12:26;;;;;;;0.30;0.30;;;17.20;90.20;;;;;;6339861;22;20006;-80
2023/05/17 01:15:10;;;;;;;0.20;0.20;;;17.20;90.40;;;;;;6339380;22;19999;-80
2023/05/17 01:17:54;;;;;;;0.60;0.20;;;17.20;90.60;;;;;;6339945;22;19999;-80
2023/05/17 01:20:30;;;;;;;0.82;0.30;;;17.20;90.70;;;;;;6338082;22;20002;-80
2023/05/17 01:23:32;;;;;;;0.30;0.30;;;17.20;90.70;;;;;;6339709;22;20081;-80
2023/05/17 01:26:11;;;;;;;1.67;0.32;;;17.20;90.90;;;;;;6337426;22;20006;-80
2023/05/17 01:28:39;;;;;;;0.68;0.40;;;17.20;91.10;;;;;;6339061;22;20009;-81
2023/05/17 01:31:07;;;;;;;0.30;0.30;;;17.10;91.30;;;;;;6339347;22;20002;-80
2023/05/17 01:33:34;;;;;;;0.65;0.32;;;17.10;91.30;;;;;;6339110;22;20074;-80
2023/05/17 01:36:00;;;;;;;0.77;0.40;;;17.10;91.40;;;;;;6339783;22;20325;-81
2023/05/17 01:38:25;;;;;;;0.85;0.50;;;17.10;91.70;;;;;;6339735;22;19995;-81
2023/05/17 01:41:04;;;;;;;1.55;0.30;;;17.00;91.60;;;;;;6337768;22;20003;-81
2023/05/17 01:43:32;;;;;;;0.30;0.30;;;17.00;91.70;;;;;;6339186;22;19999;-81
2023/05/17 01:46:17;;;;;;;0.77;0.40;;;17.00;91.90;;;;;;6340435;22;19999;-81
2023/05/17 01:49:11;;;;;;;1.13;0.30;;;17.00;92.20;;;;;;6339464;22;20009;-81
2023/05/17 01:51:45;;;;;;;2.75;0.63;;;17.00;92.40;;;;;;6322685;22;20003;-81
2023/05/17 01:54:11;;;;;;;2.72;0.57;;;17.00;92.30;;;;;;6337705;22;20003;-80
2023/05/17 01:56:45;;;;;;;0.35;0.32;;;17.00;92.30;;;;;;6338913;22;20067;-80
2023/05/17 01:59:16;;;;;;;0.85;0.38;;;16.90;92.10;;;;;;6337627;22;20006;-80
2023/05/17 02:01:42;;;;;;;0.65;0.30;;;16.80;92.00;;;;;;6337488;22;20014;-80
2023/05/17 02:04:09;;;;;;;1.40;0.40;;;16.80;92.00;;;;;;6342434;22;20002;-80
2023/05/17 02:06:35;;;;;;;1.20;0.30;;;16.80;91.90;;;;;;6344751;22;20006;-80
2023/05/17 02:09:01;;;;;;;1.38;0.40;;;16.90;92.10;;;;;;6344871;22;20003;-81
2023/05/17 02:11:27;;;;;;;0.35;0.30;;;16.80;92.10;;;;;;6341123;22;20324;-81
2023/05/17 02:13:53;;;;;;;0.82;0.30;;;16.80;92.00;;;;;;6340936;22;20073;-80
2023/05/17 02:16:19;;;;;;;1.27;0.38;;;16.80;92.10;;;;;;6339822;22;20007;-80
2023/05/17 02:18:44;;;;;;;1.65;0.40;;;16.70;92.10;;;;;;6339543;22;19995;-79
2023/05/17 02:21:12;;;;;;;0.60;0.30;;;16.70;92.10;;;;;;6340064;22;20401;-80
2023/05/17 02:23:37;;;;;;;1.00;0.40;;;16.70;92.40;;;;;;6339633;22;19995;-81
2023/05/17 02:26:03;;;;;;;2.03;0.30;;;16.70;92.30;;;;;;6339316;22;20002;-81
2023/05/17 02:28:29;;;;;;;0.65;0.30;;;16.70;92.30;;;;;;6339354;22;20336;-80
2023/05/17 02:30:55;;;;;;;2.35;0.38;;;16.70;92.50;;;;;;6339442;22;20090;-80
2023/05/17 02:33:21;;;;;;;0.70;0.22;;;16.70;92.70;;;;;;6339601;22;19995;-80
2023/05/17 02:35:48;;;;;;;1.95;0.30;;;16.70;92.90;;;;;;6339354;22;20073;-80
2023/05/17 02:38:14;;;;;;;0.40;0.30;;;16.60;93.00;;;;;;6339727;22;19994;-80
2023/05/17 02:40:41;;;;;;;1.05;0.30;;;16.60;93.00;;;;;;6338717;22;20009;-80
2023/05/17 02:43:06;;;;;;;0.57;0.22;;;16.60;93.10;;;;;;6339017;22;20029;-80
2023/05/17 02:45:32;;;;;;;1.52;0.20;;;16.60;92.90;;;;;;6339699;22;20383;-80
2023/05/17 02:47:58;;;;;;;1.23;0.20;;;16.60;93.30;;;;;;6338945;22;20059;-80
2023/05/17 02:50:23;;;;;;;0.88;0.30;;;16.50;93.00;;;;;;6339304;22;20363;-80
2023/05/17 02:52:49;;;;;;;0.20;0.20;;;16.50;93.00;;;;;;6339404;22;20070;-80
2023/05/17 02:55:15;;;;;;;2.58;0.30;;;16.50;93.00;;;;;;6339943;22;20006;-80
2023/05/17 02:57:41;;;;;;;0.43;0.20;;;16.50;92.90;;;;;;6339415;22;19999;-80
2023/05/17 03:00:08;;;;;;;2.10;0.40;;;16.50;93.00;;;;;;6337940;22;20405;-80
2023/05/17 03:02:33;;;;;;;0.65;0.30;;;16.50;92.90;;;;;;6310527;22;20428;-80
2023/05/17 03:04:59;;;;;;;1.10;0.20;;;16.40;92.90;;;;;;6339527;22;20010;-80
2023/05/17 03:07:24;;;;;;;0.93;0.30;;;16.40;92.80;;;;;;6339444;22;20005;-79
2023/05/17 03:09:50;;;;;;;1.40;0.30;;;16.40;92.60;;;;;;6338723;22;20003;-79
2023/05/17 03:12:16;;;;;;;0.70;0.32;;;16.40;92.50;;;;;;6339142;22;20036;-79
2023/05/17 03:14:41;;;;;;;1.05;0.20;;;16.40;92.50;;;;;;6311295;22;19999;-80
2023/05/17 03:17:07;;;;;;;0.38;0.20;;;16.40;92.60;;;;;;6339573;22;19995;-80
2023/05/17 03:19:32;;;;;;;0.90;0.30;;;16.40;92.90;;;;;;6339008;22;20006;-80
2023/05/17 03:21:58;;;;;;;1.13;0.28;;;16.40;93.00;;;;;;6339487;22;19999;-79
2023/05/17 03:24:24;;;;;;;0.45;0.20;;;16.40;93.00;;;;;;6310620;22;20018;-79
2023/05/17 03:26:50;;;;;;;0.55;0.20;;;16.40;93.10;;;;;;6338257;22;20010;-79
2023/05/17 03:29:15;;;;;;;1.80;0.32;;;16.40;93.10;;;;;;6338211;22;20015;-79
2023/05/17 03:31:41;;;;;;;0.35;0.22;;;16.40;93.10;;;;;;6338901;22;20413;-79
2023/05/17 03:34:07;;;;;;;0.93;0.47;;;16.40;93.20;;;;;;6338740;22;19999;-79
2023/05/17 03:36:38;;;;;;;4.65;0.38;;;16.40;93.20;;;;;;6338526;22;20009;-79
2023/05/17 03:39:03;;;;;;;0.38;0.28;;;16.30;93.30;;;;;;6310856;22;20447;-80
2023/05/17 03:41:30;;;;;;;0.85;0.40;;;16.30;93.40;;;;;;6339270;22;20003;-79
2023/05/17 03:43:56;;;;;;;2.47;0.40;;;16.30;93.50;;;;;;6338877;22;20425;-80
2023/05/17 03:46:22;;;;;;;1.27;0.47;;;16.30;93.70;;;;;;6338305;22;19999;-79
2023/05/17 03:48:48;;;;;;;3.58;0.60;;;16.30;93.80;;;;;;6338020;22;20003;-79
2023/05/17 03:51:14;;;;;;;0.40;0.30;;;16.30;94.00;;;;;;6338591;22;20048;-78
2023/05/17 03:53:42;;;;;;;0.77;0.35;;;16.30;94.10;;;;;;6338906;22;19995;-79
2023/05/17 03:56:08;;;;;;;1.27;0.60;;;16.20;94.10;;;;;;6338360;22;19995;-80
2023/05/17 03:58:34;;;;;;;0.63;0.30;;;16.20;94.20;;;;;;6311054;22;20048;-81
2023/05/17 04:01:00;;;;;;;2.65;0.40;;;16.20;94.20;;;;;;6310555;22;20009;-80
2023/05/17 04:03:25;;;;;;;2.47;0.55;;;16.20;94.20;;;;;;6339005;22;20073;-80
2023/05/17 04:05:51;;;;;;;1.00;0.47;;;16.20;94.00;;;;;;6339003;22;20009;-80
2023/05/17 04:08:17;;;;;;;2.13;0.52;;;16.20;93.90;;;;;;6310731;22;20007;-80
2023/05/17 04:10:43;;;;;;;0.88;0.30;;;16.20;93.90;;;;;;6337699;22;20007;-80
2023/05/17 04:13:09;;;;;;;0.57;0.35;;;16.20;93.90;;;;;;6338107;22;19995;-80
2023/05/17 04:15:35;;;;;;;0.60;0.20;;;16.10;93.80;;;;;;6310636;22;20052;-80
2023/05/17 04:18:01;;;;;;;0.30;0.20;;;16.10;93.80;;;;;;6338402;22;19995;-80
2023/05/17 04:20:26;;;;;;;0.57;0.30;;;16.10;93.80;;;;;;6337319;22;20006;-80
2023/05/17 04:22:52;;;;;;;1.23;0.40;;;16.10;93.80;;;;;;6338391;22;20034;-78
2023/05/17 04:25:18;;;;;;;2.40;0.38;;;16.10;93.50;;;;;;6337315;22;19998;-77
2023/05/17 04:27:47;;;;;;;0.80;0.38;;;16.10;93.50;;;;;;6308420;22;20101;-79
2023/05/17 04:30:12;;;;;;;0.17;0.10;;;16.00;93.20;;;;;;6337152;22;20061;-79
2023/05/17 04:32:38;;;;;;;0.73;0.32;;;16.00;93.40;;;;;;6338026;22;19999;-79
2023/05/17 04:35:04;;;;;;;2.35;0.40;;;15.90;93.50;;;;;;6337412;22;20003;-79
2023/05/17 04:37:30;;;;;;;0.45;0.38;;;15.90;93.60;;;;;;6337407;22;19998;-79
2023/05/17 04:39:57;;;;;;;2.17;0.63;;;15.90;93.70;;;;;;6310531;22;20371;-79
2023/05/17 04:42:23;;;;;;;1.00;0.40;;;15.90;93.80;;;;;;6337329;22;20378;-79
2023/05/17 04:44:49;;;;;;;1.98;0.60;;;15.90;93.80;;;;;;6338132;22;20013;-79
2023/05/17 04:47:15;;;;;;;1.55;0.50;;;15.90;93.90;;;;;;6337831;22;20003;-79
2023/05/17 04:49:40;;;;;;;1.80;0.40;;;15.90;93.90;;;;;;6337532;22;20003;-79
2023/05/17 04:52:06;;;;;;;1.25;0.50;;;15.90;94.00;;;;;;6338239;22;20009;-78
2023/05/17 04:54:32;;;;;;;6.45;0.70;;;15.80;94.00;;;;;;6338089;22;19995;-79
2023/05/17 04:56:57;;;;;;;0.82;0.32;;;15.80;94.00;;;;;;6337717;22;20420;-78
2023/05/17 04:59:23;;;;;;;0.47;0.40;;;15.80;94.00;;;;;;6337432;22;20451;-78
2023/05/17 05:01:48;;;;;;;0.50;0.30;;;15.80;94.10;;;;;;6337147;22;20025;-78
2023/05/17 05:04:14;;;;;;;1.00;0.40;;;15.80;94.10;;;;;;6337873;22;20070;-78
2023/05/17 05:06:40;;;;;;;1.92;0.50;;;15.90;94.20;;;;;;6338200;22;20389;-78
2023/05/17 05:09:06;;;;;;;0.57;0.40;;;15.90;94.20;;;;;;6337808;22;20003;-80
2023/05/17 05:11:31;;;;;;;0.32;0.30;;;15.90;94.40;;;;;;6338618;22;20021;-81
2023/05/17 05:13:57;;;;;;;0.80;0.45;;;15.90;94.30;;;;;;6310140;22;20306;-81
2023/05/17 05:16:23;;;;;;;0.50;0.40;;;15.90;94.30;;;;;;6339216;22;20006;-80
2023/05/17 05:18:49;;;;;;;0.50;0.45;;;16.00;94.30;;;;;;6311357;22;20007;-80
2023/05/17 05:21:15;;;;;;;0.82;0.80;;;16.00;94.30;;;;;;6337786;22;20780;-79
2023/05/17 05:23:40;;;;;;;1.13;0.68;;;16.00;94.50;;;;;;6338616;22;20005;-81
2023/05/17 05:26:06;;;;;;;2.22;0.47;;;16.10;94.50;;;;;;6339138;22;20009;-80
2023/05/17 05:28:31;;;;;;;2.05;0.40;;;16.10;94.50;;;;;;6339608;22;20021;-80
2023/05/17 05:30:59;;;;;;;1.27;0.38;;;16.10;94.30;;;;;;6338307;22;20089;-80
2023/05/17 05:33:25;;;;;;;0.75;0.50;;;16.20;94.40;;;;;;6338962;22;20474;-80
2023/05/17 05:35:51;;;;;;;1.77;0.55;;;16.20;94.40;;;;;;6339106;22;19995;-81
2023/05/17 05:38:16;;;;;;;0.30;0.30;;;16.20;94.30;;;;;;6339469;22;20002;-81
2023/05/17 05:40:44;;;;;;;0.47;0.35;;;16.20;94.40;;;;;;6339326;22;20051;-82
2023/05/17 05:43:10;;;;;;;1.85;0.40;;;16.20;94.20;;;;;;6339586;22;20002;-81
2023/05/17 05:45:35;;;;;;;1.38;0.60;;;16.20;94.50;;;;;;6338727;22;20360;-82
2023/05/17 05:48:03;;;;;;;0.32;0.25;;;16.20;94.50;;;;;;6338785;22;20108;-81
2023/05/17 05:50:28;;;;;;;0.57;0.47;;;16.30;94.50;;;;;;6339647;22;20056;-81
2023/05/17 05:52:56;;;;;;;1.20;0.38;;;16.30;94.70;;;;;;6308803;22;20006;-81
2023/05/17 05:55:22;;;;;;;2.45;0.55;;;16.40;94.70;;;;;;6311214;22;20032;-81
2023/05/17 05:57:47;;;;;;;0.95;0.35;;;16.40;94.70;;;;;;6338667;22;20022;-84
2023/05/17 06:00:14;;;;;;;0.60;0.40;;;16.50;94.70;;;;;;6311062;22;20003;-85
2023/05/17 06:02:40;;;;;;;1.52;0.40;;;16.60;94.40;;;;;;6339464;22;20006;-85
2023/05/17 06:05:06;;;;;;;0.47;0.22;;;16.60;94.20;;;;;;6339197;22;20009;-85
2023/05/17 06:07:31;;;;;;;2.55;0.50;;;16.60;94.20;;;;;;6339619;22;19999;-82
2023/05/17 06:09:57;;;;;;;0.55;0.38;;;16.60;94.20;;;;;;6339172;22;20002;-84
2023/05/17 06:12:22;;;;;;;0.40;0.30;;;16.60;94.00;;;;;;6338707;22;20074;-85
2023/05/17 06:14:48;;;;;;;2.08;0.50;;;16.60;94.00;;;;;;6339008;22;20006;-84
2023/05/17 06:17:14;;;;;;;0.30;0.30;;;16.60;93.80;;;;;;6339140;22;19999;-86
2023/05/17 06:19:39;;;;;;;1.00;0.43;;;16.60;93.80;;;;;;6339358;22;20032;-84
2023/05/17 06:22:05;;;;;;;1.27;0.60;;;16.60;93.70;;;;;;6339616;22;19999;-86
2023/05/17 06:24:31;;;;;;;1.35;0.60;;;16.50;93.80;;;;;;6339674;22;20005;-85
2023/05/17 06:26:56;;;;;;;1.35;0.55;;;16.50;93.90;;;;;;6339549;22;20003;-80
2023/05/17 06:29:22;;;;;;;0.77;0.40;;;16.60;94.00;;;;;;6338793;22;20432;-81
2023/05/17 06:31:48;;;;;;;0.73;0.45;;;16.60;93.80;;;;;;6338477;22;20426;-80
2023/05/17 06:34:14;;;;;;;0.85;0.52;;;16.60;93.90;;;;;;6338403;22;19998;-82
2023/05/17 06:36:39;;;;;;;0.95;0.38;;;16.60;93.90;;;;;;6339218;22;20003;-81
2023/05/17 06:39:06;;;;;;;0.68;0.40;;;16.60;93.90;;;;;;6339197;22;20003;-81
2023/05/17 06:41:31;;;;;;;0.70;0.47;;;16.60;94.00;;;;;;6338636;22;20299;-81
2023/05/17 06:43:57;;;;;;;0.95;0.70;;;16.60;93.90;;;;;;6339789;22;20006;-88
2023/05/17 06:46:23;;;;;;;1.10;0.60;;;16.60;94.00;;;;;;6339844;22;20361;-86
2023/05/17 06:48:48;;;;;;;0.80;0.50;;;16.60;93.90;;;;;;6310310;22;20494;-86
2023/05/17 06:51:14;;;;;;;1.25;0.68;;;16.60;93.80;;;;;;6339213;22;20048;-85
2023/05/17 06:53:39;;;;;;;1.52;0.82;;;16.60;93.90;;;;;;6311481;22;20003;-87
2023/05/17 06:56:06;;;;;;;7.05;0.50;;;16.70;93.90;;;;;;6310978;22;20055;-86
2023/05/17 06:58:34;;;;;;;1.15;0.57;;;16.70;93.90;;;;;;6310613;22;20053;-88
2023/05/17 07:00:59;;;;;;;0.50;0.50;;;16.70;94.10;;;;;;6337198;22;20019;-86
2023/05/17 07:03:25;;;;;;;1.02;0.63;;;16.80;94.20;;;;;;6310860;22;20452;-86
2023/05/17 07:05:51;;;;;;;1.92;0.65;;;16.80;94.30;;;;;;6309728;22;20003;-87
2023/05/17 07:08:17;;;;;;;6.43;0.80;;;16.90;94.30;;;;;;6335629;22;20010;-87
2023/05/17 07:10:43;;;;;;;1.13;0.73;;;16.80;94.10;;;;;;6338046;22;20073;-86
2023/05/17 07:13:08;;;;;;;1.08;0.60;;;16.90;94.20;;;;;;6338998;22;20363;-86
2023/05/17 07:15:34;;;;;;;1.75;0.65;;;16.90;94.20;;;;;;6339100;22;20481;-85
2023/05/17 07:18:00;;;;;;;2.42;0.93;;;16.90;94.20;;;;;;6339338;22;20005;-88
2023/05/17 07:20:25;;;;;;;4.05;0.75;;;16.90;94.30;;;;;;6337769;22;20003;-81
2023/05/17 07:22:51;;;;;;;0.80;0.70;;;17.00;94.20;;;;;;6307453;22;20044;-81
2023/05/17 07:25:17;;;;;;;3.03;0.77;;;17.00;94.20;;;;;;6310352;22;20007;-82
2023/05/17 07:27:43;;;;;;;0.93;0.60;;;17.00;94.20;;;;;;6337499;22;20309;-80
2023/05/17 07:30:10;;;;;;;1.08;0.82;;;17.00;94.10;;;;;;6307940;22;20017;-86
2023/05/17 07:32:36;;;;;;;1.75;0.60;;;17.00;94.30;;;;;;6311056;22;20103;-87
2023/05/17 07:35:02;;;;;;;4.03;0.80;;;17.00;94.10;;;;;;6339483;22;20421;-87
2023/05/17 07:37:28;;;;;;;0.85;0.70;;;17.10;94.20;;;;;;6339392;22;20428;-79
2023/05/17 07:39:53;;;;;;;5.57;0.95;;;17.10;94.20;;;;;;6310807;22;20053;-79
2023/05/17 07:42:22;;;;;;;1.30;0.60;;;17.20;94.30;;;;;;6311276;22;20425;-87
2023/05/17 07:44:48;;;;;;;0.57;0.43;;;17.20;94.00;;;;;;6340242;22;19999;-87
2023/05/17 07:47:15;;;;;;;3.10;0.75;;;17.20;94.00;;;;;;6339919;22;20028;-87
2023/05/17 07:49:41;;;;;;;1.20;0.50;;;17.30;93.90;;;;;;6339444;22;20379;-87
2023/05/17 07:52:07;;;;;;;4.20;0.90;;;17.40;94.10;;;;;;6340075;22;20046;-87
2023/05/17 07:54:33;;;;;;;0.70;0.57;;;17.50;94.20;;;;;;6339820;22;20018;-87
2023/05/17 07:57:02;;;;;;;1.55;0.77;;;17.60;93.70;;;;;;6339797;22;19995;-87
2023/05/17 07:59:27;;;;;;;1.92;0.77;;;17.60;93.50;;;;;;6311614;22;20009;-87
2023/05/17 08:01:53;;;;;;;1.13;0.63;;;17.60;93.30;;;;;;6339344;22;20081;-87
2023/05/17 08:04:19;;;;;;;4.18;0.63;;;17.70;93.40;;;;;;6310941;22;20011;-87
2023/05/17 08:06:47;;;;;;;1.80;0.82;;;17.70;93.30;;;;;;6311701;22;20436;-87
2023/05/17 08:09:14;;;;;;;0.82;0.60;;;17.80;93.10;;;;;;6339277;22;19999;-87
2023/05/17 08:11:44;;;;;;;1.75;0.68;;;17.80;92.60;;;;;;6339360;22;20383;-87
2023/05/17 08:14:23;;;;;;;1.60;0.70;;;17.80;92.70;;;;;;6339432;22;20006;-87
2023/05/17 08:16:50;;;;;;;0.70;0.40;;;17.90;92.50;;;;;;6311671;22;19999;-87
2023/05/17 08:19:17;;;;;;;1.60;0.68;;;17.90;92.20;;;;;;6311497;22;20314;-87
2023/05/17 08:21:45;;;;;;;1.02;0.50;;;18.00;92.20;;;;;;6338938;22;20413;-87
2023/05/17 08:24:10;;;;;;;1.40;0.60;;;18.00;91.70;;;;;;6339061;22;20425;-87
2023/05/17 08:26:36;;;;;;;1.35;0.50;;;18.00;91.80;;;;;;6311138;22;20091;-87
2023/05/17 08:29:03;;;;;;;0.73;0.50;;;18.10;91.60;;;;;;6311371;22;20340;-87
2023/05/17 08:31:30;;;;;;;0.40;0.40;;;18.10;91.80;;;;;;6311848;22;20328;-87
2023/05/17 08:33:56;;;;;;;1.05;0.65;;;18.10;91.60;;;;;;6339695;22;19995;-87
2023/05/17 08:36:22;;;;;;;0.30;0.30;;;18.20;91.60;;;;;;6339304;22;19999;-90
2023/05/17 08:38:47;;;;;;;3.88;0.43;;;18.20;91.50;;;;;;6339725;22;20330;-88
2023/05/17 08:41:13;;;;;;;1.25;0.57;;;18.30;91.80;;;;;;6339852;22;19999;-90
2023/05/17 08:43:40;;;;;;;0.45;0.38;;;18.30;91.40;;;;;;6339393;22;19995;-88
2023/05/17 08:46:06;;;;;;;0.60;0.50;;;18.30;91.30;;;;;;6339244;22;19999;-88
2023/05/17 08:48:40;;;;;;;0.57;0.50;;;18.30;90.50;;;;;;6337578;22;20447;-88
2023/05/17 08:51:10;;;;;;;1.55;0.50;;;18.30;90.80;;;;;;6340969;22;20009;-88
2023/05/17 08:53:41;;;;;;;1.00;0.60;;;18.30;90.70;;;;;;6339591;22;20324;-88
2023/05/17 08:56:10;;;;;;;3.20;1.27;;;18.30;90.90;;;;;;6340534;22;20429;-88
2023/05/17 08:58:44;;;;;;;1.13;0.50;;;18.30;90.60;;;;;;6340891;22;19999;-88
2023/05/17 09:01:11;;;;;;;2.47;0.60;;;18.30;90.20;;;;;;6313315;22;20031;-87
2023/05/17 09:03:39;;;;;;;0.70;0.60;;;18.20;90.30;;;;;;6340868;22;20325;-88
2023/05/17 09:06:06;;;;;;;2.28;0.73;;;18.20;90.30;;;;;;6340427;22;20447;-88
2023/05/17 09:08:32;;;;;;;1.35;0.60;;;18.20;90.30;;;;;;6340772;22;20424;-88
2023/05/17 09:10:58;;;;;;;1.92;0.60;;;18.20;90.30;;;;;;6340524;22;19999;-88
2023/05/17 09:13:25;;;;;;;2.05;0.80;;;18.30;90.40;;;;;;6340837;22;19995;-88
2023/05/17 09:15:51;;;;;;;1.65;0.70;;;18.30;90.50;;;;;;6338996;22;20021;-80
2023/05/17 09:18:17;;;;;;;2.17;0.65;;;18.30;90.30;;;;;;6339243;22;19995;-79
2023/05/17 09:20:50;;;;;;;2.13;0.70;;;18.30;90.60;;;;;;6338075;22;20011;-79
2023/05/17 09:23:19;;;;;;;1.52;0.50;;;18.40;90.80;;;;;;6315441;22;20025;-87
2023/05/17 09:25:48;;;;;;;0.40;0.30;;;18.40;90.30;;;;;;6364283;22;19999;-86
2023/05/17 09:28:17;;;;;;;0.45;0.40;;;18.40;89.50;;;;;;6353162;22;19995;-87
2023/05/17 09:30:44;;;;;;;0.47;0.40;;;18.40;89.00;;;;;;6340966;22;20437;-87
2023/05/17 09:33:10;;;;;;;0.88;0.60;;;18.40;88.30;;;;;;6341042;22;19999;-86
2023/05/17 09:35:37;;;;;;;1.20;0.65;;;18.50;89.10;;;;;;6313581;22;19999;-87
2023/05/17 09:38:11;;;;;;;0.90;0.52;;;18.50;89.10;;;;;;6340865;22;20070;-86
2023/05/17 09:40:41;;;;;;;0.73;0.47;;;18.50;89.30;;;;;;6340752;22;20007;-85
2023/05/17 09:43:08;;;;;;;2.67;0.65;;;18.50;89.20;;;;;;6340611;22;20409;-85
2023/05/17 09:45:35;;;;;;;1.08;0.60;;;18.50;89.80;;;;;;6327627;22;20003;-85
2023/05/17 09:48:17;;;;;;;0.52;0.40;;;18.60;89.40;;;;;;6346977;22;20007;-85
2023/05/17 09:50:46;;;;;;;1.27;0.50;;;18.60;89.50;;;;;;6342933;22;20002;-86
2023/05/17 09:53:30;;;;;;;1.08;0.68;;;18.60;89.60;;;;;;6340902;22;20054;-85
2023/05/17 09:56:00;;;;;;;6.13;0.50;;;18.60;90.00;;;;;;6340673;22;19995;-85
2023/05/17 09:58:27;;;;;;;0.88;0.70;;;18.70;88.70;;;;;;6341244;22;20002;-85
2023/05/17 10:01:04;;;;;;;0.60;0.43;;;18.80;89.10;;;;;;6341116;22;20006;-85
2023/05/17 10:03:35;;;;;;;0.95;0.70;;;18.80;88.50;;;;;;6347729;22;20014;-85
2023/05/17 10:06:04;;;;;;;1.75;0.60;;;18.80;87.80;;;;;;6326393;22;19999;-83
2023/05/17 10:08:32;;;;;;;0.32;0.30;;;18.90;87.70;;;;;;6355329;22;20001;-84
2023/05/17 10:11:05;;;;;;;6.78;0.60;;;19.00;87.90;;;;;;6351480;22;20026;-84
2023/05/17 10:13:41;;;;;;;0.35;0.25;;;19.10;88.30;;;;;;6339103;22;20018;-79
2023/05/17 10:16:07;;;;;;;1.75;0.32;;;19.10;87.20;;;;;;6338375;22;20421;-79
2023/05/17 10:18:32;;;;;;;0.30;0.30;;;19.20;86.20;;;;;;6338622;22;19995;-79
2023/05/17 10:21:00;;;;;;;0.77;0.20;;;19.20;86.10;;;;;;6338968;22;20056;-85
2023/05/17 10:23:28;;;;;;;0.60;0.38;;;19.20;86.30;;;;;;6339355;22;20077;-85
2023/05/17 10:25:54;;;;;;;1.20;0.40;;;19.20;85.50;;;;;;6338879;22;20022;-85
2023/05/17 10:28:20;;;;;;;0.43;0.30;;;19.20;85.20;;;;;;6339315;22;20005;-85
2023/05/17 10:30:47;;;;;;;0.35;0.30;;;19.20;85.40;;;;;;6340030;22;20042;-85
2023/05/17 10:33:16;;;;;;;0.45;0.32;;;19.30;85.40;;;;;;6338241;22;19999;-86
2023/05/17 10:35:43;;;;;;;0.30;0.30;;;19.30;85.50;;;;;;6340037;22;19995;-86
2023/05/17 10:38:10;;;;;;;0.73;0.30;;;19.30;86.10;;;;;;6341465;22;20060;-79
2023/05/17 10:40:38;;;;;;;0.50;0.40;;;19.30;86.30;;;;;;6339307;22;20079;-79
2023/05/17 10:43:04;;;;;;;1.13;0.30;;;19.20;86.10;;;;;;6339398;22;20443;-86
2023/05/17 10:45:30;;;;;;;0.75;0.47;;;19.20;85.70;;;;;;6339187;22;20006;-87
2023/05/17 10:47:56;;;;;;;0.40;0.20;;;19.30;85.70;;;;;;6344372;22;20435;-86
2023/05/17 10:50:23;;;;;;;2.40;0.52;;;19.40;85.60;;;;;;6318213;22;20030;-84
2023/05/17 10:52:51;;;;;;;0.73;0.30;;;19.40;85.70;;;;;;6345048;22;20016;-84
2023/05/17 10:55:22;;;;;;;1.05;0.40;;;19.40;85.10;;;;;;6341979;22;19995;-86
2023/05/17 10:58:18;;;;;;;0.82;0.30;;;19.40;85.30;;;;;;6338280;22;20075;-78
2023/05/17 11:00:49;;;;;;;0.57;0.30;;;19.50;85.30;;;;;;6336141;22;20007;-78
2023/05/17 11:03:27;;;;;;;0.30;0.30;;;19.50;84.70;;;;;;6338032;22;20002;-78
2023/05/17 11:06:16;;;;;;;1.00;0.35;;;19.50;84.60;;;;;;6309775;22;20337;-78
2023/05/17 11:08:46;;;;;;;0.83;0.13;;;19.50;83.40;;;;;;6336415;22;19999;-80
2023/05/17 11:11:18;;;;;;;3.87;0.60;;;19.50;83.70;;;;;;6336943;22;20041;-77
2023/05/17 11:13:45;;;;;;;2.13;0.22;;;19.50;83.50;;;;;;6310425;22;20009;-77
2023/05/17 11:16:15;;;;;;;4.05;0.50;;;19.50;82.90;;;;;;6310426;22;20033;-77
2023/05/17 11:18:52;;;;;;;0.20;0.20;;;19.50;83.10;;;;;;6337948;22;20030;-77
2023/05/17 11:21:20;;;;;;;0.75;0.22;;;19.60;82.70;;;;;;6336970;22;20003;-82
2023/05/17 11:23:48;;;;;;;1.23;0.30;;;19.60;82.60;;;;;;6336768;22;20444;-82
2023/05/17 11:26:40;;;;;;;0.40;0.35;;;19.70;82.90;;;;;;6337189;22;20002;-82
2023/05/17 11:29:09;;;;;;;0.38;0.30;;;19.70;82.60;;;;;;6334957;22;20014;-82
2023/05/17 11:31:41;;;;;;;1.55;0.40;;;19.80;82.80;;;;;;6335934;22;20070;-82
2023/05/17 11:34:07;;;;;;;0.70;0.20;;;19.80;83.00;;;;;;6335467;22;19998;-78
2023/05/17 11:36:50;;;;;;;0.57;0.30;;;19.90;82.90;;;;;;6335027;22;20033;-77
2023/05/17 11:39:19;;;;;;;0.20;0.10;;;19.90;82.70;;;;;;6335081;22;20048;-82
2023/05/17 11:41:49;;;;;;;1.92;0.55;;;19.90;82.40;;;;;;6335335;22;20022;-82
2023/05/17 11:44:22;;;;;;;1.20;0.50;;;20.00;82.40;;;;;;6307800;22;20381;-82
2023/05/17 11:46:49;;;;;;;0.82;0.20;;;20.00;82.60;;;;;;6335409;22;20006;-82
2023/05/17 11:49:15;;;;;;;1.05;0.40;;;20.10;82.20;;;;;;6334506;22;20013;-82
2023/05/17 11:51:41;;;;;;;0.22;0.20;;;20.10;81.40;;;;;;6334710;22;20405;-78
2023/05/17 11:54:10;;;;;;;0.45;0.15;;;20.10;81.70;;;;;;6334820;22;20003;-78
2023/05/17 11:56:37;;;;;;;0.43;0.30;;;20.10;80.60;;;;;;6334820;22;20007;-77
2023/05/17 11:59:03;;;;;;;2.88;0.47;;;20.00;80.60;;;;;;6306840;22;19999;-77
2023/05/17 12:01:45;;;;;;;0.22;0.20;;;20.00;80.50;;;;;;6335145;22;19999;-77
2023/05/17 12:04:10;;;;;;;0.73;0.40;;;20.10;80.30;;;;;;6334958;22;20078;-78
2023/05/17 12:06:36;;;;;;;0.68;0.28;;;20.10;80.10;;;;;;6334476;22;20082;-78
2023/05/17 12:09:04;;;;;;;0.88;0.30;;;20.10;80.20;;;;;;6334401;22;19998;-77
2023/05/17 12:11:30;;;;;;;0.38;0.32;;;20.10;80.00;;;;;;6334509;22;20078;-78
2023/05/17 12:13:56;;;;;;;0.52;0.20;;;20.10;79.60;;;;;;6334823;22;20042;-78
2023/05/17 12:16:23;;;;;;;0.22;0.22;;;20.10;79.40;;;;;;6334342;22;20487;-77
2023/05/17 12:18:50;;;;;;;0.20;0.20;;;20.10;79.70;;;;;;6334693;22;20074;-77
2023/05/17 12:21:17;;;;;;;0.20;0.20;;;20.10;79.40;;;;;;6335843;22;20013;-82
2023/05/17 12:23:45;;;;;;;0.43;0.20;;;20.10;79.60;;;;;;6338391;22;20003;-82
2023/05/17 12:26:13;;;;;;;0.22;0.20;;;20.10;79.50;;;;;;6339700;22;20003;-82
2023/05/17 12:28:40;;;;;;;0.38;0.20;;;20.00;79.50;;;;;;6339005;22;20010;-82
2023/05/17 12:31:17;;;;;;;1.90;0.20;;;20.00;79.30;;;;;;6311648;22;20460;-82
2023/05/17 12:33:46;;;;;;;0.38;0.20;;;20.00;79.70;;;;;;6340211;22;20019;-83
2023/05/17 12:36:13;;;;;;;0.20;0.15;;;19.90;80.20;;;;;;6340576;22;19995;-83
2023/05/17 12:38:41;;;;;;;0.30;0.20;;;19.90;79.90;;;;;;6340421;22;20025;-83
2023/05/17 12:41:11;;;;;;;0.28;0.10;;;20.00;80.00;;;;;;6339933;22;20002;-78
2023/05/17 12:43:38;;;;;;;0.10;0.10;;;19.90;80.20;;;;;;6339787;22;20428;-77
2023/05/17 12:46:08;;;;;;;0.45;0.20;;;19.90;80.70;;;;;;6340028;22;20031;-78
2023/05/17 12:48:37;;;;;;;0.52;0.10;;;19.90;80.80;;;;;;6339879;22;20003;-78
2023/05/17 12:51:20;;;;;;;0.25;0.10;;;19.80;79.70;;;;;;6339424;22;20003;-78